Time;durP1;ratioP1;P1;durP2;ratioP2;P2;SDS_P1;SDS_P2;PMS_P1;PMS_P2;Temp;Humidity;BMP_temperature;BMP_pressure;BME280_temperature;BME280_humidity;BME280_pressure;Samples;Min_cycle;Max_cycle;Signal;HPM_P1;HPM_P2
2023/03/09 00:01:49;;;;;;;17.35;10.57;;;0.80;99.90;;;;;;5065208;28;20047;-39
2023/03/09 00:04:16;;;;;;;19.20;11.88;;;0.80;99.90;;;;;;5065259;28;20151;-38
2023/03/09 00:06:43;;;;;;;15.73;10.23;;;0.80;99.90;;;;;;5055402;28;20079;-39
2023/03/09 00:09:09;;;;;;;20.40;12.48;;;0.80;99.90;;;;;;5064226;28;20044;-38
2023/03/09 00:11:35;;;;;;;21.17;11.52;;;0.70;99.90;;;;;;5065144;28;20037;-38
2023/03/09 00:14:01;;;;;;;21.50;12.38;;;0.70;99.90;;;;;;5064878;28;20041;-38
2023/03/09 00:16:28;;;;;;;20.98;12.48;;;0.70;99.90;;;;;;5065114;28;20040;-38
2023/03/09 00:18:57;;;;;;;20.40;11.63;;;0.70;99.90;;;;;;5064345;28;20040;-38
2023/03/09 00:21:41;;;;;;;25.13;12.60;;;0.70;99.90;;;;;;5045169;28;20052;-38
2023/03/09 00:24:08;;;;;;;23.92;12.98;;;0.80;99.90;;;;;;5045229;28;20824;-38
2023/03/09 00:26:36;;;;;;;19.60;12.40;;;0.60;99.90;;;;;;5062482;28;20055;-38
2023/03/09 00:29:03;;;;;;;24.90;12.60;;;0.70;99.90;;;;;;5061656;28;20075;-38
2023/03/09 00:31:28;;;;;;;18.50;11.68;;;0.70;99.90;;;;;;5044883;28;20101;-37
2023/03/09 00:33:54;;;;;;;22.00;12.85;;;0.70;99.90;;;;;;5044801;28;20037;-37
2023/03/09 00:36:20;;;;;;;21.40;12.35;;;0.60;99.90;;;;;;5062775;28;20841;-37
2023/03/09 00:38:54;;;;;;;19.83;11.05;;;0.60;99.90;;;;;;5030265;28;20445;-39
2023/03/09 00:41:22;;;;;;;19.95;11.38;;;0.60;99.90;;;;;;5064951;28;20051;-41
2023/03/09 00:43:47;;;;;;;19.20;11.63;;;0.60;99.90;;;;;;5064788;28;20057;-42
2023/03/09 00:46:14;;;;;;;18.63;11.30;;;0.50;99.90;;;;;;5065250;28;20037;-42
2023/03/09 00:48:40;;;;;;;22.45;11.40;;;0.60;99.90;;;;;;5065017;28;20056;-42
2023/03/09 00:51:07;;;;;;;24.17;12.07;;;0.40;99.90;;;;;;5064571;28;20475;-41
2023/03/09 00:53:34;;;;;;;22.83;13.13;;;0.50;99.90;;;;;;5065098;28;20059;-42
2023/03/09 00:56:05;;;;;;;18.27;11.88;;;0.50;99.90;;;;;;5065141;28;20517;-42
2023/03/09 00:58:31;;;;;;;21.40;13.15;;;0.40;99.90;;;;;;5065133;28;20078;-41
2023/03/09 01:00:57;;;;;;;20.67;12.95;;;0.50;99.90;;;;;;5066004;28;20064;-42
2023/03/09 01:03:23;;;;;;;24.02;12.10;;;0.50;99.90;;;;;;5065809;28;20055;-41
2023/03/09 01:05:49;;;;;;;21.60;13.48;;;0.50;99.90;;;;;;5065887;28;20067;-42
2023/03/09 01:08:15;;;;;;;23.52;13.45;;;0.50;99.90;;;;;;5065471;28;20044;-42
2023/03/09 01:10:42;;;;;;;19.10;11.55;;;0.70;99.90;;;;;;5065441;28;20063;-41
2023/03/09 01:13:09;;;;;;;22.83;12.57;;;0.50;99.90;;;;;;5065316;28;20725;-42
2023/03/09 01:15:35;;;;;;;22.33;13.48;;;0.50;99.90;;;;;;5065706;28;20055;-42
2023/03/09 01:18:01;;;;;;;22.10;12.68;;;0.40;99.90;;;;;;5065415;28;20044;-42
2023/03/09 01:20:27;;;;;;;21.95;12.95;;;0.40;99.90;;;;;;5064958;28;20044;-42
2023/03/09 01:22:53;;;;;;;23.58;13.02;;;0.70;99.90;;;;;;5065501;28;20091;-42
2023/03/09 01:25:18;;;;;;;20.80;11.85;;;0.40;99.90;;;;;;5065283;28;20063;-42
2023/03/09 01:27:44;;;;;;;22.58;11.32;;;0.40;99.90;;;;;;5065640;28;20058;-41
2023/03/09 01:30:11;;;;;;;20.83;12.70;;;0.40;99.90;;;;;;5065101;28;20605;-41
2023/03/09 01:32:36;;;;;;;19.25;11.15;;;0.30;99.90;;;;;;5065129;28;20048;-41
2023/03/09 01:35:03;;;;;;;19.08;12.07;;;0.30;99.90;;;;;;5064903;28;20063;-41
2023/03/09 01:37:29;;;;;;;20.70;11.35;;;0.20;99.90;;;;;;5064736;28;20044;-42
2023/03/09 01:39:55;;;;;;;20.58;10.50;;;0.30;99.90;;;;;;5065134;28;20102;-41
2023/03/09 01:42:20;;;;;;;16.52;10.98;;;0.20;99.90;;;;;;5064894;28;20045;-41
2023/03/09 01:45:12;;;;;;;17.80;10.00;;;0.30;99.90;;;;;;5065459;28;20391;-42
2023/03/09 01:47:37;;;;;;;16.50;9.95;;;-0.80;99.90;;;;;;5061104;28;20055;-42
2023/03/09 01:50:05;;;;;;;17.73;10.30;;;0.30;99.90;;;;;;5065222;28;20037;-42
2023/03/09 01:52:33;;;;;;;16.15;9.32;;;0.20;99.90;;;;;;5064486;28;20052;-41
2023/03/09 01:55:09;;;;;;;16.98;9.60;;;0.30;99.90;;;;;;5065273;28;20044;-41
2023/03/09 01:57:57;;;;;;;19.98;10.18;;;0.20;99.90;;;;;;5065261;28;20113;-42
2023/03/09 02:00:25;;;;;;;16.85;10.18;;;0.80;99.90;;;;;;5068776;28;20050;-42
2023/03/09 02:02:54;;;;;;;14.45;8.98;;;0.30;99.90;;;;;;5069637;28;20051;-42
2023/03/09 02:05:23;;;;;;;18.23;9.65;;;0.30;99.90;;;;;;5069331;28;20055;-42
2023/03/09 02:07:51;;;;;;;15.68;8.93;;;0.20;99.90;;;;;;5069385;28;20076;-42
2023/03/09 02:10:30;;;;;;;15.68;9.15;;;0.20;99.90;;;;;;5069119;28;20044;-41
2023/03/09 02:13:01;;;;;;;15.73;8.75;;;0.20;99.90;;;;;;5051409;28;20053;-42
2023/03/09 02:15:26;;;;;;;17.50;10.15;;;0.30;99.90;;;;;;5068753;28;20395;-42
2023/03/09 02:17:52;;;;;;;16.63;9.38;;;0.20;99.90;;;;;;5069026;28;20047;-43
2023/03/09 02:20:41;;;;;;;15.43;9.35;;;0.20;99.90;;;;;;5068465;28;20037;-42
2023/03/09 02:23:18;;;;;;;16.05;9.10;;;0.20;99.90;;;;;;5068963;28;20525;-41
2023/03/09 02:26:20;;;;;;;14.88;9.15;;;0.10;99.90;;;;;;5068273;28;20531;-41
2023/03/09 02:28:46;;;;;;;16.40;10.40;;;0.10;99.90;;;;;;5037129;28;20475;-41
2023/03/09 02:31:13;;;;;;;19.75;10.15;;;0.10;99.90;;;;;;5068828;28;20059;-42
2023/03/09 02:33:39;;;;;;;15.45;9.27;;;0.10;99.90;;;;;;5068376;28;20182;-42
2023/03/09 02:36:06;;;;;;;20.30;11.52;;;0.10;99.90;;;;;;5033041;28;20053;-41
2023/03/09 02:38:31;;;;;;;18.25;10.00;;;-0.30;99.90;;;;;;5068615;28;20417;-41
2023/03/09 02:40:59;;;;;;;17.75;10.20;;;0.20;99.90;;;;;;5068122;28;20040;-41
2023/03/09 02:43:32;;;;;;;17.30;9.65;;;0.20;99.90;;;;;;5068358;28;20049;-41
2023/03/09 02:45:57;;;;;;;15.85;10.05;;;0.10;99.90;;;;;;5068961;28;20055;-42
2023/03/09 02:48:23;;;;;;;15.57;9.75;;;0.20;99.90;;;;;;5068754;28;20036;-42
2023/03/09 02:50:49;;;;;;;17.30;9.90;;;0.10;99.90;;;;;;5068352;28;20079;-41
2023/03/09 02:53:15;;;;;;;19.05;9.77;;;0.20;99.90;;;;;;5068862;28;20559;-41
2023/03/09 02:55:40;;;;;;;15.90;9.68;;;0.10;99.90;;;;;;5050747;28;20066;-41
2023/03/09 02:58:06;;;;;;;15.68;10.13;;;0.10;99.90;;;;;;5068427;28;20040;-42
2023/03/09 03:00:32;;;;;;;18.85;10.27;;;0.00;99.90;;;;;;5068622;28;20043;-42
2023/03/09 03:02:57;;;;;;;16.85;9.38;;;0.10;99.90;;;;;;5068624;28;20051;-42
2023/03/09 03:05:23;;;;;;;17.95;10.32;;;0.10;99.90;;;;;;5067777;28;20111;-41
2023/03/09 03:07:49;;;;;;;17.75;10.38;;;0.10;99.90;;;;;;5067689;28;20147;-42
2023/03/09 03:10:15;;;;;;;19.05;9.77;;;0.10;99.90;;;;;;5066340;28;20058;-42
2023/03/09 03:12:41;;;;;;;17.98;10.15;;;0.10;99.90;;;;;;5067041;28;20056;-41
2023/03/09 03:15:08;;;;;;;16.65;10.02;;;0.10;99.90;;;;;;5066778;28;20032;-41
2023/03/09 03:17:34;;;;;;;17.80;10.55;;;0.10;99.90;;;;;;5066480;28;20463;-41
2023/03/09 03:19:59;;;;;;;18.17;11.20;;;0.10;99.90;;;;;;5049542;28;20037;-43
2023/03/09 03:22:25;;;;;;;20.67;10.15;;;0.00;99.90;;;;;;5067457;28;20029;-42
2023/03/09 03:24:51;;;;;;;18.50;10.88;;;0.00;99.90;;;;;;5067502;28;20756;-41
2023/03/09 03:27:16;;;;;;;20.02;11.68;;;0.10;99.90;;;;;;5067342;28;20700;-42
2023/03/09 03:29:42;;;;;;;20.50;12.05;;;0.30;99.90;;;;;;5066357;28;20094;-42
2023/03/09 03:32:08;;;;;;;21.45;12.23;;;0.00;99.90;;;;;;5048982;28;20059;-42
2023/03/09 03:34:34;;;;;;;20.50;12.35;;;0.10;99.90;;;;;;5066820;28;20036;-41
2023/03/09 03:37:00;;;;;;;22.67;12.48;;;0.10;99.90;;;;;;5067128;28;20044;-41
2023/03/09 03:39:26;;;;;;;24.73;14.15;;;-0.30;99.90;;;;;;5066931;28;20477;-41
2023/03/09 03:41:51;;;;;;;23.33;13.65;;;0.10;99.90;;;;;;5066899;28;20041;-41
2023/03/09 03:44:18;;;;;;;22.75;13.05;;;0.20;99.90;;;;;;5048775;28;20119;-42
2023/03/09 03:46:44;;;;;;;26.38;13.75;;;0.60;99.90;;;;;;5066315;28;20050;-42
2023/03/09 03:49:09;;;;;;;23.42;12.90;;;0.10;99.90;;;;;;5067201;28;20037;-42
2023/03/09 03:51:35;;;;;;;23.48;13.57;;;0.10;99.90;;;;;;5066704;28;20050;-41
2023/03/09 03:54:01;;;;;;;23.02;14.27;;;0.10;99.90;;;;;;5066913;28;20219;-41
2023/03/09 03:56:26;;;;;;;25.88;13.60;;;0.10;99.90;;;;;;5066604;28;20125;-42
2023/03/09 03:58:52;;;;;;;27.65;15.25;;;0.10;99.90;;;;;;5066632;28;20036;-42
2023/03/09 04:01:18;;;;;;;30.45;15.20;;;0.10;99.90;;;;;;5066409;28;20043;-42
2023/03/09 04:03:43;;;;;;;29.52;14.88;;;0.00;99.90;;;;;;5066582;28;20045;-41
2023/03/09 04:06:09;;;;;;;27.17;15.43;;;0.00;99.90;;;;;;5066971;28;20061;-42
2023/03/09 04:08:35;;;;;;;24.17;13.93;;;0.00;99.90;;;;;;5066641;28;20406;-41
2023/03/09 04:11:05;;;;;;;28.92;16.75;;;0.10;99.90;;;;;;5066478;28;20044;-42
2023/03/09 04:13:31;;;;;;;25.20;14.82;;;-0.20;99.90;;;;;;5066346;28;20513;-42
2023/03/09 04:15:57;;;;;;;27.85;15.40;;;0.10;99.90;;;;;;5066358;28;20037;-42
2023/03/09 04:18:22;;;;;;;29.27;15.52;;;0.00;99.90;;;;;;5066175;28;20078;-42
2023/03/09 04:20:48;;;;;;;30.92;16.58;;;0.20;99.90;;;;;;5065961;28;20064;-41
2023/03/09 04:23:14;;;;;;;30.55;16.13;;;0.10;99.90;;;;;;5066843;28;20127;-42
2023/03/09 04:25:39;;;;;;;32.95;17.00;;;0.20;99.90;;;;;;5066698;28;20048;-42
2023/03/09 04:28:05;;;;;;;26.73;15.70;;;0.30;99.90;;;;;;5066276;28;20044;-42
2023/03/09 04:30:31;;;;;;;31.08;16.00;;;0.10;99.90;;;;;;5065991;28;20043;-41
2023/03/09 04:32:56;;;;;;;26.88;14.93;;;0.10;99.90;;;;;;5065725;28;20102;-41
2023/03/09 04:35:22;;;;;;;30.88;16.33;;;0.00;99.90;;;;;;5065950;28;20049;-42
2023/03/09 04:37:48;;;;;;;28.67;17.00;;;0.20;99.90;;;;;;5048267;28;20048;-42
2023/03/09 04:40:14;;;;;;;30.52;16.52;;;0.60;99.90;;;;;;5065627;28;20128;-41
2023/03/09 04:42:40;;;;;;;30.10;16.33;;;0.20;99.90;;;;;;5066239;28;20059;-41
2023/03/09 04:45:06;;;;;;;34.13;17.13;;;0.10;99.90;;;;;;5065845;28;20036;-42
2023/03/09 04:47:32;;;;;;;28.35;15.77;;;0.10;99.90;;;;;;5065951;28;20040;-42
2023/03/09 04:49:58;;;;;;;29.10;15.88;;;0.20;99.90;;;;;;5065558;28;20116;-41
2023/03/09 04:52:24;;;;;;;34.90;17.50;;;0.20;99.90;;;;;;5065416;28;20044;-42
2023/03/09 04:54:50;;;;;;;33.10;16.77;;;0.00;99.90;;;;;;5065509;28;20047;-42
2023/03/09 04:57:16;;;;;;;32.47;17.23;;;0.10;99.90;;;;;;5065525;28;20091;-42
2023/03/09 04:59:42;;;;;;;31.90;15.77;;;0.10;99.90;;;;;;5066137;28;20040;-42
2023/03/09 05:02:07;;;;;;;33.03;16.80;;;0.10;99.90;;;;;;5066076;28;20501;-41
2023/03/09 05:04:33;;;;;;;34.80;18.52;;;0.00;99.90;;;;;;5065913;28;20048;-41
2023/03/09 05:06:59;;;;;;;33.83;17.02;;;0.30;99.90;;;;;;5065494;28;20048;-43
2023/03/09 05:09:25;;;;;;;30.15;16.25;;;0.10;99.90;;;;;;5047878;28;20044;-43
2023/03/09 05:11:51;;;;;;;39.15;19.42;;;0.00;99.90;;;;;;5065607;28;20055;-42
2023/03/09 05:14:20;;;;;;;35.20;18.98;;;-0.10;99.90;;;;;;5064832;28;20028;-42
2023/03/09 05:16:51;;;;;;;33.80;16.83;;;-0.10;99.90;;;;;;5065406;28;20036;-41
2023/03/09 05:19:17;;;;;;;35.05;17.15;;;-0.10;99.90;;;;;;5058228;28;20429;-41
2023/03/09 05:21:43;;;;;;;37.72;18.02;;;0.00;99.90;;;;;;5065504;28;20066;-41
2023/03/09 05:24:09;;;;;;;35.50;16.98;;;-0.10;99.90;;;;;;5065445;28;20048;-42
2023/03/09 05:26:35;;;;;;;34.03;17.75;;;-0.10;99.90;;;;;;5065568;28;20040;-41
2023/03/09 05:29:00;;;;;;;37.78;17.17;;;-0.10;99.90;;;;;;5065630;28;20055;-42
2023/03/09 05:31:26;;;;;;;34.88;16.63;;;-0.10;99.90;;;;;;5065124;28;20075;-41
2023/03/09 05:33:55;;;;;;;32.58;16.13;;;-0.10;99.90;;;;;;5067066;28;20060;-42
2023/03/09 05:36:25;;;;;;;32.42;15.63;;;-0.20;99.90;;;;;;5069529;28;20375;-42
2023/03/09 05:38:52;;;;;;;32.85;16.05;;;-0.20;99.90;;;;;;5069523;28;20067;-41
2023/03/09 05:41:19;;;;;;;34.40;16.15;;;-0.20;99.90;;;;;;5069095;28;20694;-42
2023/03/09 05:43:44;;;;;;;35.20;16.85;;;-0.20;99.90;;;;;;5069108;28;20492;-42
2023/03/09 05:46:12;;;;;;;40.25;17.92;;;-0.20;99.90;;;;;;5069107;28;20044;-41
2023/03/09 05:48:39;;;;;;;32.08;17.38;;;-0.30;99.90;;;;;;5069424;28;20146;-42
2023/03/09 05:51:05;;;;;;;36.25;18.23;;;-0.20;99.90;;;;;;5069056;28;20155;-41
2023/03/09 05:53:32;;;;;;;35.53;17.92;;;-0.10;99.90;;;;;;5069251;28;20052;-42
2023/03/09 05:55:58;;;;;;;35.47;17.38;;;-0.10;99.90;;;;;;5068624;28;20378;-43
2023/03/09 05:58:24;;;;;;;33.92;17.02;;;0.00;99.90;;;;;;5069429;28;20070;-42
2023/03/09 06:00:52;;;;;;;34.55;17.70;;;-0.20;99.90;;;;;;5069307;28;20036;-42
2023/03/09 06:03:18;;;;;;;31.73;16.15;;;-0.10;99.90;;;;;;5069003;28;20474;-42
2023/03/09 06:05:44;;;;;;;31.10;15.88;;;;;;;;;;5069231;28;20371;-42
2023/03/09 06:08:10;;;;;;;29.88;14.18;;;-0.10;99.90;;;;;;5050680;28;20056;-42
2023/03/09 06:10:37;;;;;;;32.65;16.52;;;-0.10;99.90;;;;;;5068953;28;20044;-43
2023/03/09 06:13:02;;;;;;;32.55;15.52;;;-0.10;99.90;;;;;;5068044;28;20264;-42
2023/03/09 06:15:28;;;;;;;34.58;15.82;;;-0.10;99.90;;;;;;5068476;28;20543;-42
2023/03/09 06:17:54;;;;;;;35.28;15.15;;;0.00;99.90;;;;;;5049746;28;20064;-42
2023/03/09 06:20:20;;;;;;;27.92;14.93;;;0.10;99.90;;;;;;5068555;28;20124;-42
2023/03/09 06:22:45;;;;;;;31.02;16.20;;;0.00;99.90;;;;;;5068509;28;20063;-42
2023/03/09 06:25:11;;;;;;;25.95;14.70;;;0.00;99.90;;;;;;5068447;28;20036;-43
2023/03/09 06:27:38;;;;;;;30.00;15.80;;;0.10;99.90;;;;;;5067878;28;20119;-42
2023/03/09 06:30:05;;;;;;;33.45;15.63;;;0.40;99.90;;;;;;5067955;28;20512;-42
2023/03/09 06:32:34;;;;;;;26.33;14.18;;;0.10;99.90;;;;;;5067439;28;20114;-42
2023/03/09 06:35:00;;;;;;;27.33;14.30;;;0.80;99.90;;;;;;5067381;28;20056;-42
2023/03/09 06:37:26;;;;;;;28.83;15.73;;;0.10;99.90;;;;;;5068141;28;20051;-42
2023/03/09 06:39:52;;;;;;;30.25;14.93;;;0.20;99.90;;;;;;5068515;28;20037;-42
2023/03/09 06:42:18;;;;;;;27.00;13.60;;;0.20;99.90;;;;;;5068410;28;20375;-42
2023/03/09 06:44:44;;;;;;;32.85;15.30;;;0.10;99.90;;;;;;5068240;28;20150;-42
2023/03/09 06:47:11;;;;;;;32.28;15.57;;;0.20;99.90;;;;;;5068312;28;20036;-42
2023/03/09 06:49:38;;;;;;;32.72;15.85;;;0.20;99.90;;;;;;5068339;28;20040;-42
2023/03/09 06:52:04;;;;;;;32.78;17.17;;;0.20;99.90;;;;;;5067861;28;20032;-42
2023/03/09 06:54:29;;;;;;;31.08;17.23;;;1.40;99.90;;;;;;5068258;28;20410;-42
2023/03/09 06:56:55;;;;;;;30.73;16.38;;;0.20;99.90;;;;;;5067403;28;20066;-42
2023/03/09 06:59:20;;;;;;;32.03;17.80;;;0.30;99.90;;;;;;5067157;28;20032;-43
2023/03/09 07:01:46;;;;;;;31.23;16.75;;;0.20;99.90;;;;;;5067181;28;20067;-42
2023/03/09 07:04:12;;;;;;;32.38;16.42;;;0.30;99.90;;;;;;5066812;28;20588;-42
2023/03/09 07:06:37;;;;;;;31.33;16.30;;;0.20;99.90;;;;;;5066825;28;20036;-43
2023/03/09 07:09:04;;;;;;;32.15;17.80;;;0.40;99.90;;;;;;5067135;28;20054;-43
2023/03/09 07:11:30;;;;;;;32.47;17.48;;;0.30;99.90;;;;;;5067254;28;20569;-42
2023/03/09 07:13:56;;;;;;;28.48;15.73;;;0.40;99.90;;;;;;5048788;28;20049;-42
2023/03/09 07:16:22;;;;;;;29.48;17.23;;;0.60;99.90;;;;;;5067467;28;20058;-43
2023/03/09 07:18:48;;;;;;;31.33;16.30;;;0.60;99.90;;;;;;5067277;28;20047;-42
2023/03/09 07:21:15;;;;;;;30.00;16.50;;;0.60;99.90;;;;;;5066765;28;20041;-43
2023/03/09 07:23:40;;;;;;;32.97;16.58;;;0.70;99.90;;;;;;5066883;28;20044;-43
2023/03/09 07:26:07;;;;;;;29.13;15.82;;;0.70;99.90;;;;;;5066914;28;20041;-42
2023/03/09 07:28:34;;;;;;;30.60;16.00;;;0.90;99.90;;;;;;5066949;28;20036;-42
2023/03/09 07:31:11;;;;;;;25.95;15.63;;;0.80;99.90;;;;;;5066956;28;20122;-42
2023/03/09 07:33:37;;;;;;;29.25;15.43;;;0.90;99.90;;;;;;5048694;28;20048;-42
2023/03/09 07:36:07;;;;;;;26.27;15.20;;;0.90;99.90;;;;;;5048319;28;20048;-42
2023/03/09 07:38:33;;;;;;;27.38;14.43;;;1.00;99.90;;;;;;5067073;28;20043;-42
2023/03/09 07:41:00;;;;;;;24.48;15.02;;;1.10;99.90;;;;;;5067131;28;20033;-42
2023/03/09 07:43:26;;;;;;;24.35;15.32;;;1.10;99.90;;;;;;5066834;28;20044;-42
2023/03/09 07:45:52;;;;;;;26.08;15.02;;;1.10;99.90;;;;;;5067099;28;20075;-43
2023/03/09 07:48:18;;;;;;;23.52;13.93;;;1.10;99.90;;;;;;5066701;28;20040;-42
2023/03/09 07:50:44;;;;;;;27.17;14.65;;;1.10;99.90;;;;;;5066691;28;20076;-42
2023/03/09 07:53:10;;;;;;;22.08;13.90;;;1.10;99.90;;;;;;5066711;28;20045;-43
2023/03/09 07:55:36;;;;;;;20.95;13.00;;;1.10;99.90;;;;;;5066360;28;20036;-42
2023/03/09 07:58:03;;;;;;;22.55;14.10;;;1.30;99.90;;;;;;5066926;28;20037;-43
2023/03/09 08:00:29;;;;;;;26.17;13.68;;;1.70;99.90;;;;;;5066560;28;20148;-42
2023/03/09 08:02:56;;;;;;;23.58;14.35;;;1.70;99.90;;;;;;5066131;28;20478;-42
2023/03/09 08:05:22;;;;;;;20.92;13.35;;;2.10;99.90;;;;;;5065926;28;20416;-43
2023/03/09 08:07:49;;;;;;;20.80;11.90;;;2.00;99.90;;;;;;5066350;28;20044;-44
2023/03/09 08:10:17;;;;;;;20.83;12.35;;;2.20;99.90;;;;;;5066695;28;20099;-42
2023/03/09 08:12:46;;;;;;;20.90;12.30;;;2.10;99.90;;;;;;5066657;28;20048;-42
2023/03/09 08:15:12;;;;;;;19.25;11.88;;;2.10;99.90;;;;;;5066628;28;20040;-43
2023/03/09 08:17:37;;;;;;;21.13;11.52;;;2.10;99.90;;;;;;5066308;28;20040;-43
2023/03/09 08:20:11;;;;;;;21.30;11.50;;;2.00;99.90;;;;;;5066005;28;20044;-43
2023/03/09 08:22:37;;;;;;;19.92;12.25;;;2.40;99.90;;;;;;5066247;28;20071;-42
2023/03/09 08:25:04;;;;;;;18.25;11.05;;;2.20;99.90;;;;;;5065887;28;20636;-43
2023/03/09 08:27:30;;;;;;;18.77;10.98;;;2.50;99.90;;;;;;5065868;28;20044;-42
2023/03/09 08:29:55;;;;;;;16.45;10.45;;;3.00;99.90;;;;;;5066063;28;20541;-42
2023/03/09 08:32:25;;;;;;;19.17;11.98;;;2.10;99.90;;;;;;5066054;28;20049;-42
2023/03/09 08:34:55;;;;;;;20.85;12.27;;;2.10;99.90;;;;;;5065344;28;20114;-42
2023/03/09 08:37:20;;;;;;;16.92;11.25;;;2.00;99.90;;;;;;5065607;28;20079;-42
2023/03/09 08:39:46;;;;;;;19.67;12.27;;;3.10;99.90;;;;;;5066277;28;20064;-43
2023/03/09 08:42:12;;;;;;;17.42;11.73;;;2.20;99.90;;;;;;5066362;28;20093;-43
2023/03/09 08:44:37;;;;;;;18.38;12.85;;;2.10;99.90;;;;;;5066344;28;20036;-43
2023/03/09 08:47:03;;;;;;;17.48;12.13;;;2.40;99.90;;;;;;5066143;28;20481;-42
2023/03/09 08:49:28;;;;;;;18.90;12.27;;;3.10;99.90;;;;;;5066070;28;20078;-42
2023/03/09 08:51:55;;;;;;;19.02;12.15;;;2.10;99.90;;;;;;5065936;28;20132;-42
2023/03/09 08:54:20;;;;;;;20.75;12.52;;;2.20;99.90;;;;;;5065225;28;20041;-43
2023/03/09 08:56:46;;;;;;;18.45;12.52;;;2.20;99.90;;;;;;5047118;28;20098;-43
2023/03/09 08:59:12;;;;;;;18.58;12.52;;;2.30;99.90;;;;;;5047041;28;20459;-42
2023/03/09 09:01:38;;;;;;;19.20;12.02;;;2.30;99.90;;;;;;5065249;28;20036;-42
2023/03/09 09:04:04;;;;;;;17.75;11.95;;;2.30;99.90;;;;;;5064635;28;20498;-43
2023/03/09 09:06:30;;;;;;;19.83;12.80;;;2.40;99.90;;;;;;5064032;28;20040;-42
2023/03/09 09:08:55;;;;;;;19.92;13.10;;;2.20;99.90;;;;;;5064575;28;20040;-42
2023/03/09 09:11:21;;;;;;;19.90;12.65;;;2.40;99.90;;;;;;5062820;28;20652;-38
2023/03/09 09:13:47;;;;;;;17.40;11.73;;;3.80;99.90;;;;;;5045600;28;20040;-38
2023/03/09 09:16:15;;;;;;;17.90;11.65;;;2.30;99.90;;;;;;5064195;28;20448;-38
2023/03/09 09:18:41;;;;;;;19.55;11.85;;;2.40;99.90;;;;;;5064346;28;20048;-38
2023/03/09 09:21:12;;;;;;;16.05;10.73;;;2.50;99.90;;;;;;5065751;28;20036;-38
2023/03/09 09:23:40;;;;;;;17.40;11.63;;;2.50;99.90;;;;;;5065185;28;20097;-38
2023/03/09 09:26:06;;;;;;;17.48;11.90;;;2.60;99.90;;;;;;5065325;28;20052;-38
2023/03/09 09:28:33;;;;;;;16.67;11.63;;;2.60;99.90;;;;;;5065327;28;20044;-38
2023/03/09 09:31:01;;;;;;;19.63;11.65;;;2.50;99.90;;;;;;5065829;28;20112;-38
2023/03/09 09:33:28;;;;;;;18.42;11.00;;;2.50;99.90;;;;;;5065468;28;20671;-38
2023/03/09 09:36:05;;;;;;;16.33;10.90;;;2.50;99.90;;;;;;5065482;28;20064;-38
2023/03/09 09:38:35;;;;;;;16.77;12.02;;;2.60;99.90;;;;;;5065415;28;20067;-38
2023/03/09 09:41:12;;;;;;;17.55;11.15;;;2.50;99.90;;;;;;5047576;28;20115;-38
2023/03/09 09:43:39;;;;;;;17.20;11.43;;;2.50;99.90;;;;;;5065379;28;20037;-38
2023/03/09 09:46:09;;;;;;;16.20;10.52;;;2.60;99.90;;;;;;5065366;28;20095;-38
2023/03/09 09:48:35;;;;;;;15.73;10.25;;;2.50;99.90;;;;;;5065011;28;20063;-38
2023/03/09 09:51:10;;;;;;;16.20;11.18;;;2.60;99.90;;;;;;5064948;28;20084;-38
2023/03/09 09:53:54;;;;;;;15.50;10.98;;;2.60;99.90;;;;;;5064627;28;20784;-38
2023/03/09 09:56:26;;;;;;;16.50;10.85;;;2.80;99.90;;;;;;5065108;28;20036;-38
2023/03/09 09:59:01;;;;;;;15.55;9.88;;;2.80;99.90;;;;;;5064942;28;20106;-38
2023/03/09 10:01:56;;;;;;;16.50;10.68;;;2.70;99.90;;;;;;5064226;28;20049;-38
2023/03/09 10:04:35;;;;;;;18.27;10.98;;;2.80;99.90;;;;;;5046610;28;20060;-38
2023/03/09 10:07:12;;;;;;;17.23;11.32;;;2.90;99.90;;;;;;5064644;28;20122;-38
2023/03/09 10:09:42;;;;;;;16.40;10.75;;;2.90;99.90;;;;;;5064401;28;20119;-38
2023/03/09 10:12:13;;;;;;;14.73;10.15;;;3.00;99.90;;;;;;5064662;28;20059;-38
2023/03/09 10:14:44;;;;;;;15.63;10.23;;;3.00;99.90;;;;;;5062763;28;20048;-38
2023/03/09 10:17:15;;;;;;;15.63;10.75;;;3.00;99.90;;;;;;5064488;28;20163;-38
2023/03/09 10:19:41;;;;;;;17.65;10.77;;;3.90;99.90;;;;;;5047834;28;20041;-38
2023/03/09 10:22:13;;;;;;;16.13;11.15;;;2.90;99.90;;;;;;5069276;28;20033;-38
2023/03/09 10:24:47;;;;;;;15.65;10.65;;;2.90;99.90;;;;;;5068673;28;20123;-39
2023/03/09 10:27:31;;;;;;;15.73;10.57;;;2.90;99.90;;;;;;5068442;28;20375;-38
2023/03/09 10:30:09;;;;;;;17.58;11.10;;;3.00;99.90;;;;;;5068499;28;20048;-38
2023/03/09 10:32:57;;;;;;;15.70;10.93;;;3.00;99.90;;;;;;5049897;28;20082;-38
2023/03/09 10:35:34;;;;;;;15.57;10.30;;;3.10;99.90;;;;;;5067761;28;20103;-38
2023/03/09 10:38:00;;;;;;;17.48;10.55;;;3.00;99.90;;;;;;5068442;28;20040;-38
2023/03/09 10:40:50;;;;;;;17.73;12.10;;;3.60;99.90;;;;;;5068037;28;20044;-38
2023/03/09 10:43:28;;;;;;;18.55;11.65;;;3.10;99.90;;;;;;5067042;28;20071;-38
2023/03/09 10:45:55;;;;;;;20.48;12.75;;;3.20;99.90;;;;;;5050485;28;20048;-38
2023/03/09 10:48:26;;;;;;;17.92;11.15;;;3.30;99.90;;;;;;5068649;28;20044;-38
2023/03/09 10:51:01;;;;;;;17.50;11.63;;;3.30;99.90;;;;;;5068167;28;20041;-38
2023/03/09 10:53:30;;;;;;;18.63;11.50;;;3.90;99.90;;;;;;5067963;28;20526;-39
2023/03/09 10:56:20;;;;;;;16.83;10.77;;;3.30;99.90;;;;;;5067959;28;20690;-38
2023/03/09 10:58:47;;;;;;;15.70;10.32;;;3.40;99.90;;;;;;5067189;28;20059;-39
2023/03/09 11:01:15;;;;;;;18.98;11.52;;;3.30;99.90;;;;;;5067528;28;20131;-39
2023/03/09 11:03:43;;;;;;;15.48;11.20;;;3.40;99.90;;;;;;5067469;28;20058;-38
2023/03/09 11:06:24;;;;;;;16.30;10.80;;;3.40;99.90;;;;;;5066949;28;20048;-38
2023/03/09 11:09:03;;;;;;;16.17;11.13;;;3.40;99.90;;;;;;5067240;28;20055;-38
2023/03/09 11:11:29;;;;;;;15.30;11.25;;;3.40;99.90;;;;;;5067477;28;20071;-38
2023/03/09 11:13:55;;;;;;;18.23;11.45;;;3.30;99.90;;;;;;5067290;28;20136;-38
2023/03/09 11:16:23;;;;;;;19.05;12.48;;;3.30;99.90;;;;;;5067807;28;20381;-39
2023/03/09 11:19:03;;;;;;;16.15;10.75;;;3.40;99.90;;;;;;5067703;28;20032;-38
2023/03/09 11:21:28;;;;;;;15.90;11.73;;;3.30;99.90;;;;;;5067618;28;20568;-38
2023/03/09 11:23:54;;;;;;;19.30;12.27;;;3.40;99.90;;;;;;5067220;28;20045;-38
2023/03/09 11:26:33;;;;;;;15.27;11.13;;;3.40;99.90;;;;;;5067694;28;20123;-38
2023/03/09 11:29:01;;;;;;;19.02;11.35;;;3.40;99.90;;;;;;5067282;28;20049;-38
2023/03/09 11:31:47;;;;;;;20.63;13.98;;;3.60;99.90;;;;;;5066503;28;20083;-38
2023/03/09 11:34:39;;;;;;;18.40;12.93;;;3.70;99.90;;;;;;5066964;28;20059;-38
2023/03/09 11:37:19;;;;;;;18.20;12.07;;;3.80;99.90;;;;;;5058499;28;20052;-39
2023/03/09 11:40:06;;;;;;;15.90;11.63;;;3.90;99.90;;;;;;5067503;28;20640;-38
2023/03/09 11:42:56;;;;;;;16.02;11.45;;;4.00;99.90;;;;;;5049200;28;20087;-38
2023/03/09 11:45:25;;;;;;;17.00;11.85;;;4.00;99.90;;;;;;5067324;28;20457;-39
2023/03/09 11:48:31;;;;;;;17.42;11.80;;;4.10;99.90;;;;;;5066575;28;20044;-38
2023/03/09 11:51:17;;;;;;;17.38;11.65;;;4.10;99.90;;;;;;4984168;28;20038;-38
2023/03/09 11:53:51;;;;;;;16.50;11.85;;;4.10;99.90;;;;;;5064225;28;20526;-38
2023/03/09 11:56:29;;;;;;;17.60;11.73;;;4.10;99.90;;;;;;5066985;28;20040;-38
2023/03/09 11:59:21;;;;;;;15.95;10.65;;;4.00;99.90;;;;;;5066345;28;20071;-39
2023/03/09 12:01:59;;;;;;;18.27;11.98;;;4.30;99.90;;;;;;5065957;28;20040;-38
2023/03/09 12:04:26;;;;;;;16.50;12.30;;;3.90;99.90;;;;;;5066000;28;20298;-39
2023/03/09 12:07:07;;;;;;;16.75;12.13;;;3.70;99.90;;;;;;5065756;28;20095;-38
2023/03/09 12:09:45;;;;;;;17.57;12.43;;;3.80;99.90;;;;;;5065914;28;20048;-38
2023/03/09 12:12:26;;;;;;;16.20;11.45;;;3.70;99.90;;;;;;5065682;28;20094;-38
2023/03/09 12:15:01;;;;;;;16.67;13.15;;;3.70;99.90;;;;;;5065963;28;20036;-38
2023/03/09 12:17:32;;;;;;;18.67;12.25;;;3.70;99.90;;;;;;5066068;28;20036;-38
2023/03/09 12:19:59;;;;;;;17.65;11.98;;;3.70;99.90;;;;;;5047788;28;20474;-38
2023/03/09 12:22:36;;;;;;;18.40;12.23;;;3.70;99.90;;;;;;5066298;28;20036;-38
2023/03/09 12:25:05;;;;;;;18.52;13.25;;;3.60;99.90;;;;;;5047837;28;20125;-38
2023/03/09 12:27:34;;;;;;;15.57;11.25;;;3.60;99.90;;;;;;5066571;28;20044;-38
2023/03/09 12:29:59;;;;;;;16.65;11.70;;;3.60;99.90;;;;;;5066453;28;20048;-38
2023/03/09 12:32:25;;;;;;;16.27;12.15;;;3.60;99.90;;;;;;5066606;28;20117;-38
2023/03/09 12:34:53;;;;;;;15.05;11.38;;;3.60;99.90;;;;;;5065341;28;20051;-38
2023/03/09 12:37:28;;;;;;;17.25;11.98;;;3.70;99.90;;;;;;5066217;28;20044;-38
2023/03/09 12:40:02;;;;;;;17.50;12.75;;;3.60;99.90;;;;;;5066189;28;20082;-38
2023/03/09 12:42:39;;;;;;;17.58;12.90;;;3.70;99.90;;;;;;5065630;28;20367;-38
2023/03/09 12:45:10;;;;;;;17.58;12.52;;;3.70;99.90;;;;;;5065919;28;20504;-38
2023/03/09 12:47:45;;;;;;;17.67;11.75;;;3.80;99.90;;;;;;5066165;28;20055;-39